sensor_id;sensor_type;location;lat;lon;timestamp;P1;durP1;ratioP1;P2;durP2;ratioP2
16416;SDS011;8317;52.186;5.688;2023-09-30T00:01:43;5.95;;;2.30;;
16416;SDS011;8317;52.186;5.688;2023-09-30T00:04:10;4.82;;;2.60;;
16416;SDS011;8317;52.186;5.688;2023-09-30T00:06:38;3.28;;;2.25;;
16416;SDS011;8317;52.186;5.688;2023-09-30T00:09:06;5.65;;;2.67;;
16416;SDS011;8317;52.186;5.688;2023-09-30T00:11:33;3.08;;;2.13;;
16416;SDS011;8317;52.186;5.688;2023-09-30T00:14:00;4.13;;;2.42;;
16416;SDS011;8317;52.186;5.688;2023-09-30T00:16:25;5.22;;;1.98;;
16416;SDS011;8317;52.186;5.688;2023-09-30T00:18:52;3.30;;;2.10;;
16416;SDS011;8317;52.186;5.688;2023-09-30T00:21:19;6.07;;;2.00;;
16416;SDS011;8317;52.186;5.688;2023-09-30T00:23:46;3.20;;;2.13;;
16416;SDS011;8317;52.186;5.688;2023-09-30T00:26:14;6.28;;;2.45;;
16416;SDS011;8317;52.186;5.688;2023-09-30T00:28:41;4.60;;;2.33;;
16416;SDS011;8317;52.186;5.688;2023-09-30T00:31:08;4.70;;;2.72;;
16416;SDS011;8317;52.186;5.688;2023-09-30T00:33:36;10.00;;;2.75;;
16416;SDS011;8317;52.186;5.688;2023-09-30T00:36:07;3.38;;;2.13;;
16416;SDS011;8317;52.186;5.688;2023-09-30T00:38:34;8.43;;;2.15;;
16416;SDS011;8317;52.186;5.688;2023-09-30T00:41:01;5.32;;;2.45;;
16416;SDS011;8317;52.186;5.688;2023-09-30T00:43:30;3.17;;;2.17;;
16416;SDS011;8317;52.186;5.688;2023-09-30T00:46:01;4.35;;;2.50;;
16416;SDS011;8317;52.186;5.688;2023-09-30T00:48:31;4.82;;;2.38;;
16416;SDS011;8317;52.186;5.688;2023-09-30T00:50:59;6.13;;;1.95;;
16416;SDS011;8317;52.186;5.688;2023-09-30T00:53:26;6.60;;;2.85;;
16416;SDS011;8317;52.186;5.688;2023-09-30T00:55:53;3.03;;;2.20;;
16416;SDS011;8317;52.186;5.688;2023-09-30T00:58:22;8.63;;;2.70;;
16416;SDS011;8317;52.186;5.688;2023-09-30T01:00:55;5.40;;;2.70;;
16416;SDS011;8317;52.186;5.688;2023-09-30T01:03:23;4.78;;;2.40;;
16416;SDS011;8317;52.186;5.688;2023-09-30T01:05:49;4.00;;;2.00;;
16416;SDS011;8317;52.186;5.688;2023-09-30T01:08:17;2.63;;;1.88;;
16416;SDS011;8317;52.186;5.688;2023-09-30T01:10:45;11.70;;;2.25;;
16416;SDS011;8317;52.186;5.688;2023-09-30T01:13:12;5.68;;;2.22;;
16416;SDS011;8317;52.186;5.688;2023-09-30T01:15:39;6.65;;;3.15;;
16416;SDS011;8317;52.186;5.688;2023-09-30T01:18:07;6.72;;;2.88;;
16416;SDS011;8317;52.186;5.688;2023-09-30T01:20:34;7.43;;;3.00;;
16416;SDS011;8317;52.186;5.688;2023-09-30T01:23:02;2.80;;;2.20;;
16416;SDS011;8317;52.186;5.688;2023-09-30T01:25:29;4.43;;;2.40;;
16416;SDS011;8317;52.186;5.688;2023-09-30T01:27:58;4.68;;;2.15;;
16416;SDS011;8317;52.186;5.688;2023-09-30T01:30:31;8.23;;;2.60;;
16416;SDS011;8317;52.186;5.688;2023-09-30T01:32:58;7.85;;;2.25;;
16416;SDS011;8317;52.186;5.688;2023-09-30T01:35:25;4.70;;;2.80;;
16416;SDS011;8317;52.186;5.688;2023-09-30T01:37:52;4.63;;;3.05;;
16416;SDS011;8317;52.186;5.688;2023-09-30T01:40:20;7.28;;;2.40;;
16416;SDS011;8317;52.186;5.688;2023-09-30T01:42:47;5.97;;;2.75;;
16416;SDS011;8317;52.186;5.688;2023-09-30T01:45:14;6.85;;;2.60;;
16416;SDS011;8317;52.186;5.688;2023-09-30T01:47:41;5.47;;;2.22;;
16416;SDS011;8317;52.186;5.688;2023-09-30T01:50:08;4.15;;;1.90;;
16416;SDS011;8317;52.186;5.688;2023-09-30T01:52:35;7.57;;;2.85;;
16416;SDS011;8317;52.186;5.688;2023-09-30T01:55:02;6.10;;;2.65;;
16416;SDS011;8317;52.186;5.688;2023-09-30T01:57:31;6.97;;;2.83;;
16416;SDS011;8317;52.186;5.688;2023-09-30T01:59:57;9.82;;;2.83;;
16416;SDS011;8317;52.186;5.688;2023-09-30T02:02:24;6.75;;;2.38;;
16416;SDS011;8317;52.186;5.688;2023-09-30T02:04:52;3.75;;;2.50;;
16416;SDS011;8317;52.186;5.688;2023-09-30T02:07:19;4.22;;;2.60;;
16416;SDS011;8317;52.186;5.688;2023-09-30T02:09:46;5.32;;;2.70;;
16416;SDS011;8317;52.186;5.688;2023-09-30T02:12:13;4.10;;;2.25;;
16416;SDS011;8317;52.186;5.688;2023-09-30T02:14:42;7.90;;;2.53;;
16416;SDS011;8317;52.186;5.688;2023-09-30T02:17:09;3.80;;;2.22;;
16416;SDS011;8317;52.186;5.688;2023-09-30T02:19:36;6.85;;;2.47;;
16416;SDS011;8317;52.186;5.688;2023-09-30T02:22:03;8.73;;;2.92;;
16416;SDS011;8317;52.186;5.688;2023-09-30T02:24:30;7.72;;;2.60;;
16416;SDS011;8317;52.186;5.688;2023-09-30T02:26:57;6.90;;;2.38;;
16416;SDS011;8317;52.186;5.688;2023-09-30T02:29:24;5.43;;;2.53;;
16416;SDS011;8317;52.186;5.688;2023-09-30T02:31:52;7.20;;;3.28;;
16416;SDS011;8317;52.186;5.688;2023-09-30T02:34:20;4.97;;;2.50;;
16416;SDS011;8317;52.186;5.688;2023-09-30T02:36:47;5.97;;;2.42;;
16416;SDS011;8317;52.186;5.688;2023-09-30T02:39:14;6.25;;;2.00;;
16416;SDS011;8317;52.186;5.688;2023-09-30T02:41:42;5.40;;;2.70;;
16416;SDS011;8317;52.186;5.688;2023-09-30T02:44:08;8.18;;;2.90;;
16416;SDS011;8317;52.186;5.688;2023-09-30T02:46:36;5.85;;;2.55;;
16416;SDS011;8317;52.186;5.688;2023-09-30T02:49:04;5.35;;;2.55;;
16416;SDS011;8317;52.186;5.688;2023-09-30T02:51:31;3.67;;;2.28;;
16416;SDS011;8317;52.186;5.688;2023-09-30T02:53:58;8.98;;;3.08;;
16416;SDS011;8317;52.186;5.688;2023-09-30T02:56:25;5.25;;;2.67;;
16416;SDS011;8317;52.186;5.688;2023-09-30T02:58:55;5.43;;;2.63;;
16416;SDS011;8317;52.186;5.688;2023-09-30T03:01:22;6.32;;;2.40;;
16416;SDS011;8317;52.186;5.688;2023-09-30T03:03:49;5.70;;;2.50;;
16416;SDS011;8317;52.186;5.688;2023-09-30T03:06:18;5.43;;;2.63;;
16416;SDS011;8317;52.186;5.688;2023-09-30T03:08:44;4.72;;;2.47;;
16416;SDS011;8317;52.186;5.688;2023-09-30T03:11:11;9.77;;;3.05;;
16416;SDS011;8317;52.186;5.688;2023-09-30T03:13:38;5.05;;;2.60;;
16416;SDS011;8317;52.186;5.688;2023-09-30T03:16:07;4.85;;;2.78;;
16416;SDS011;8317;52.186;5.688;2023-09-30T03:18:34;5.78;;;2.40;;
16416;SDS011;8317;52.186;5.688;2023-09-30T03:21:01;6.68;;;3.10;;
16416;SDS011;8317;52.186;5.688;2023-09-30T03:23:34;6.60;;;3.03;;
16416;SDS011;8317;52.186;5.688;2023-09-30T03:26:03;7.13;;;3.05;;
16416;SDS011;8317;52.186;5.688;2023-09-30T03:28:34;5.97;;;2.53;;
16416;SDS011;8317;52.186;5.688;2023-09-30T03:31:01;5.78;;;2.22;;
16416;SDS011;8317;52.186;5.688;2023-09-30T03:33:30;6.18;;;3.03;;
16416;SDS011;8317;52.186;5.688;2023-09-30T03:35:56;8.23;;;3.05;;
16416;SDS011;8317;52.186;5.688;2023-09-30T03:38:25;3.38;;;2.50;;
16416;SDS011;8317;52.186;5.688;2023-09-30T03:40:53;6.32;;;2.90;;
16416;SDS011;8317;52.186;5.688;2023-09-30T03:43:22;9.63;;;3.38;;
16416;SDS011;8317;52.186;5.688;2023-09-30T03:45:49;5.13;;;2.28;;
16416;SDS011;8317;52.186;5.688;2023-09-30T03:48:16;7.97;;;2.92;;
16416;SDS011;8317;52.186;5.688;2023-09-30T03:50:43;2.90;;;2.25;;
16416;SDS011;8317;52.186;5.688;2023-09-30T03:53:10;5.35;;;2.40;;
16416;SDS011;8317;52.186;5.688;2023-09-30T03:55:37;5.65;;;2.88;;
16416;SDS011;8317;52.186;5.688;2023-09-30T03:58:05;4.53;;;2.60;;
16416;SDS011;8317;52.186;5.688;2023-09-30T04:00:32;7.45;;;3.00;;
16416;SDS011;8317;52.186;5.688;2023-09-30T04:03:00;5.13;;;2.75;;
16416;SDS011;8317;52.186;5.688;2023-09-30T04:05:27;8.45;;;2.85;;
16416;SDS011;8317;52.186;5.688;2023-09-30T04:07:55;6.60;;;2.67;;
16416;SDS011;8317;52.186;5.688;2023-09-30T04:10:22;7.57;;;3.15;;
16416;SDS011;8317;52.186;5.688;2023-09-30T04:12:49;5.55;;;2.53;;
16416;SDS011;8317;52.186;5.688;2023-09-30T04:15:18;8.80;;;3.15;;
16416;SDS011;8317;52.186;5.688;2023-09-30T04:17:45;6.15;;;3.08;;
16416;SDS011;8317;52.186;5.688;2023-09-30T04:20:12;4.28;;;2.53;;
16416;SDS011;8317;52.186;5.688;2023-09-30T04:22:45;5.60;;;2.33;;
16416;SDS011;8317;52.186;5.688;2023-09-30T04:25:13;8.75;;;3.30;;
16416;SDS011;8317;52.186;5.688;2023-09-30T04:27:41;7.70;;;3.08;;
16416;SDS011;8317;52.186;5.688;2023-09-30T04:30:09;4.53;;;2.88;;
16416;SDS011;8317;52.186;5.688;2023-09-30T04:32:38;6.25;;;2.63;;
16416;SDS011;8317;52.186;5.688;2023-09-30T04:35:05;4.53;;;2.55;;
16416;SDS011;8317;52.186;5.688;2023-09-30T04:37:33;5.50;;;3.22;;
16416;SDS011;8317;52.186;5.688;2023-09-30T04:40:03;6.70;;;3.05;;
16416;SDS011;8317;52.186;5.688;2023-09-30T04:42:34;5.13;;;3.38;;
16416;SDS011;8317;52.186;5.688;2023-09-30T04:45:01;5.22;;;3.00;;
16416;SDS011;8317;52.186;5.688;2023-09-30T04:47:31;6.00;;;3.17;;
16416;SDS011;8317;52.186;5.688;2023-09-30T04:49:59;7.28;;;3.28;;
16416;SDS011;8317;52.186;5.688;2023-09-30T04:52:29;9.32;;;3.47;;
16416;SDS011;8317;52.186;5.688;2023-09-30T04:54:56;5.45;;;3.67;;
16416;SDS011;8317;52.186;5.688;2023-09-30T04:57:25;7.15;;;2.70;;
16416;SDS011;8317;52.186;5.688;2023-09-30T04:59:52;8.45;;;3.30;;
16416;SDS011;8317;52.186;5.688;2023-09-30T05:02:18;6.13;;;3.30;;
16416;SDS011;8317;52.186;5.688;2023-09-30T05:04:45;9.82;;;3.42;;
16416;SDS011;8317;52.186;5.688;2023-09-30T05:07:14;9.05;;;3.35;;
16416;SDS011;8317;52.186;5.688;2023-09-30T05:09:40;6.07;;;3.13;;
16416;SDS011;8317;52.186;5.688;2023-09-30T05:12:08;5.22;;;3.00;;
16416;SDS011;8317;52.186;5.688;2023-09-30T05:14:36;7.72;;;3.70;;
16416;SDS011;8317;52.186;5.688;2023-09-30T05:17:04;6.00;;;3.35;;
16416;SDS011;8317;52.186;5.688;2023-09-30T05:19:31;14.52;;;3.30;;
16416;SDS011;8317;52.186;5.688;2023-09-30T05:21:58;12.25;;;3.97;;
16416;SDS011;8317;52.186;5.688;2023-09-30T05:24:27;9.23;;;4.38;;
16416;SDS011;8317;52.186;5.688;2023-09-30T05:26:54;9.15;;;3.92;;
16416;SDS011;8317;52.186;5.688;2023-09-30T05:29:21;13.88;;;4.53;;
16416;SDS011;8317;52.186;5.688;2023-09-30T05:31:48;6.80;;;3.10;;
16416;SDS011;8317;52.186;5.688;2023-09-30T05:34:15;10.05;;;3.88;;
16416;SDS011;8317;52.186;5.688;2023-09-30T05:36:42;7.20;;;4.25;;
16416;SDS011;8317;52.186;5.688;2023-09-30T05:39:09;5.28;;;3.67;;
16416;SDS011;8317;52.186;5.688;2023-09-30T05:41:38;8.05;;;4.45;;
16416;SDS011;8317;52.186;5.688;2023-09-30T05:44:07;7.80;;;4.25;;
16416;SDS011;8317;52.186;5.688;2023-09-30T05:46:33;9.00;;;2.97;;
16416;SDS011;8317;52.186;5.688;2023-09-30T05:49:00;9.82;;;3.05;;
16416;SDS011;8317;52.186;5.688;2023-09-30T05:51:34;6.32;;;3.40;;
16416;SDS011;8317;52.186;5.688;2023-09-30T05:54:01;7.60;;;3.28;;
16416;SDS011;8317;52.186;5.688;2023-09-30T05:56:30;6.28;;;3.95;;
16416;SDS011;8317;52.186;5.688;2023-09-30T05:58:59;6.35;;;2.80;;
16416;SDS011;8317;52.186;5.688;2023-09-30T06:01:26;4.63;;;3.45;;
16416;SDS011;8317;52.186;5.688;2023-09-30T06:03:53;6.15;;;3.35;;
16416;SDS011;8317;52.186;5.688;2023-09-30T06:06:20;6.38;;;3.83;;
16416;SDS011;8317;52.186;5.688;2023-09-30T06:08:49;10.68;;;4.00;;
16416;SDS011;8317;52.186;5.688;2023-09-30T06:11:16;9.20;;;4.07;;
16416;SDS011;8317;52.186;5.688;2023-09-30T06:13:44;6.70;;;3.92;;
16416;SDS011;8317;52.186;5.688;2023-09-30T06:16:13;6.22;;;3.78;;
16416;SDS011;8317;52.186;5.688;2023-09-30T06:18:41;8.73;;;4.03;;
16416;SDS011;8317;52.186;5.688;2023-09-30T06:21:10;7.90;;;3.30;;
16416;SDS011;8317;52.186;5.688;2023-09-30T06:23:37;8.32;;;4.10;;
16416;SDS011;8317;52.186;5.688;2023-09-30T06:26:04;8.85;;;4.80;;
16416;SDS011;8317;52.186;5.688;2023-09-30T06:28:31;10.30;;;4.93;;
16416;SDS011;8317;52.186;5.688;2023-09-30T06:31:05;7.43;;;3.63;;
16416;SDS011;8317;52.186;5.688;2023-09-30T06:33:34;9.02;;;4.60;;
16416;SDS011;8317;52.186;5.688;2023-09-30T06:36:01;10.23;;;5.10;;
16416;SDS011;8317;52.186;5.688;2023-09-30T06:38:28;8.52;;;4.10;;
16416;SDS011;8317;52.186;5.688;2023-09-30T06:40:55;10.93;;;5.03;;
16416;SDS011;8317;52.186;5.688;2023-09-30T06:43:22;7.55;;;3.80;;
16416;SDS011;8317;52.186;5.688;2023-09-30T06:45:49;8.07;;;4.45;;
16416;SDS011;8317;52.186;5.688;2023-09-30T06:48:16;9.82;;;5.10;;
16416;SDS011;8317;52.186;5.688;2023-09-30T06:50:45;10.52;;;4.38;;
16416;SDS011;8317;52.186;5.688;2023-09-30T06:53:13;8.65;;;4.63;;
16416;SDS011;8317;52.186;5.688;2023-09-30T06:55:41;10.43;;;4.78;;
16416;SDS011;8317;52.186;5.688;2023-09-30T06:58:08;9.07;;;6.18;;
16416;SDS011;8317;52.186;5.688;2023-09-30T07:00:36;17.02;;;5.65;;
16416;SDS011;8317;52.186;5.688;2023-09-30T07:03:03;6.45;;;4.68;;
16416;SDS011;8317;52.186;5.688;2023-09-30T07:05:31;14.05;;;6.10;;
16416;SDS011;8317;52.186;5.688;2023-09-30T07:07:59;10.93;;;5.60;;
16416;SDS011;8317;52.186;5.688;2023-09-30T07:10:26;14.20;;;5.95;;
16416;SDS011;8317;52.186;5.688;2023-09-30T07:12:54;12.98;;;5.72;;
16416;SDS011;8317;52.186;5.688;2023-09-30T07:15:21;13.05;;;5.88;;
16416;SDS011;8317;52.186;5.688;2023-09-30T07:17:48;10.18;;;5.72;;
16416;SDS011;8317;52.186;5.688;2023-09-30T07:20:15;13.95;;;7.20;;
16416;SDS011;8317;52.186;5.688;2023-09-30T07:22:42;15.43;;;7.95;;
16416;SDS011;8317;52.186;5.688;2023-09-30T07:25:11;15.48;;;8.18;;
16416;SDS011;8317;52.186;5.688;2023-09-30T07:27:39;16.30;;;9.60;;
16416;SDS011;8317;52.186;5.688;2023-09-30T07:30:07;19.85;;;8.27;;
16416;SDS011;8317;52.186;5.688;2023-09-30T07:32:34;13.48;;;8.20;;
16416;SDS011;8317;52.186;5.688;2023-09-30T07:35:01;18.67;;;10.30;;
16416;SDS011;8317;52.186;5.688;2023-09-30T07:37:28;19.23;;;9.95;;
16416;SDS011;8317;52.186;5.688;2023-09-30T07:39:55;20.85;;;11.57;;
16416;SDS011;8317;52.186;5.688;2023-09-30T07:42:24;19.52;;;12.15;;
16416;SDS011;8317;52.186;5.688;2023-09-30T07:44:50;22.33;;;12.50;;
16416;SDS011;8317;52.186;5.688;2023-09-30T07:47:17;25.70;;;11.27;;
16416;SDS011;8317;52.186;5.688;2023-09-30T07:49:44;24.38;;;11.88;;
16416;SDS011;8317;52.186;5.688;2023-09-30T07:52:11;19.98;;;11.70;;
16416;SDS011;8317;52.186;5.688;2023-09-30T07:54:38;19.88;;;11.23;;
16416;SDS011;8317;52.186;5.688;2023-09-30T07:57:05;22.05;;;11.40;;
16416;SDS011;8317;52.186;5.688;2023-09-30T07:59:33;20.77;;;10.10;;
16416;SDS011;8317;52.186;5.688;2023-09-30T08:02:01;19.30;;;10.98;;
16416;SDS011;8317;52.186;5.688;2023-09-30T08:04:30;18.23;;;10.27;;
16416;SDS011;8317;52.186;5.688;2023-09-30T08:06:57;21.45;;;8.88;;
16416;SDS011;8317;52.186;5.688;2023-09-30T08:09:24;16.88;;;9.85;;
16416;SDS011;8317;52.186;5.688;2023-09-30T08:11:52;13.45;;;8.75;;
16416;SDS011;8317;52.186;5.688;2023-09-30T08:14:19;15.23;;;9.18;;
16416;SDS011;8317;52.186;5.688;2023-09-30T08:16:47;17.52;;;8.75;;
16416;SDS011;8317;52.186;5.688;2023-09-30T08:19:15;16.10;;;8.93;;
16416;SDS011;8317;52.186;5.688;2023-09-30T08:21:42;20.73;;;9.63;;
16416;SDS011;8317;52.186;5.688;2023-09-30T08:24:10;21.02;;;9.38;;
16416;SDS011;8317;52.186;5.688;2023-09-30T08:26:37;16.58;;;9.88;;
16416;SDS011;8317;52.186;5.688;2023-09-30T08:29:03;18.45;;;8.85;;
16416;SDS011;8317;52.186;5.688;2023-09-30T08:31:31;17.63;;;8.13;;
16416;SDS011;8317;52.186;5.688;2023-09-30T08:34:00;15.38;;;8.52;;
16416;SDS011;8317;52.186;5.688;2023-09-30T08:36:29;18.10;;;8.65;;
16416;SDS011;8317;52.186;5.688;2023-09-30T08:38:56;11.63;;;6.70;;
16416;SDS011;8317;52.186;5.688;2023-09-30T08:41:24;15.77;;;7.57;;
16416;SDS011;8317;52.186;5.688;2023-09-30T08:43:58;12.05;;;7.43;;
16416;SDS011;8317;52.186;5.688;2023-09-30T08:46:27;14.07;;;7.30;;
16416;SDS011;8317;52.186;5.688;2023-09-30T08:48:57;17.00;;;8.55;;
16416;SDS011;8317;52.186;5.688;2023-09-30T08:51:26;14.55;;;7.35;;
16416;SDS011;8317;52.186;5.688;2023-09-30T08:53:55;12.48;;;7.10;;
16416;SDS011;8317;52.186;5.688;2023-09-30T08:56:24;12.05;;;7.50;;
16416;SDS011;8317;52.186;5.688;2023-09-30T08:58:54;16.45;;;7.32;;
16416;SDS011;8317;52.186;5.688;2023-09-30T09:01:24;14.55;;;6.95;;
16416;SDS011;8317;52.186;5.688;2023-09-30T09:03:51;11.25;;;6.82;;
16416;SDS011;8317;52.186;5.688;2023-09-30T09:06:18;14.55;;;6.72;;
16416;SDS011;8317;52.186;5.688;2023-09-30T09:08:47;16.95;;;6.93;;
16416;SDS011;8317;52.186;5.688;2023-09-30T09:11:14;15.75;;;6.05;;
16416;SDS011;8317;52.186;5.688;2023-09-30T09:13:46;12.82;;;6.95;;
16416;SDS011;8317;52.186;5.688;2023-09-30T09:16:15;10.35;;;6.43;;
16416;SDS011;8317;52.186;5.688;2023-09-30T09:18:44;15.45;;;6.47;;
16416;SDS011;8317;52.186;5.688;2023-09-30T09:21:13;11.85;;;5.90;;
16416;SDS011;8317;52.186;5.688;2023-09-30T09:23:42;9.82;;;5.47;;
16416;SDS011;8317;52.186;5.688;2023-09-30T09:26:11;9.43;;;5.90;;
16416;SDS011;8317;52.186;5.688;2023-09-30T09:28:39;8.00;;;4.95;;
16416;SDS011;8317;52.186;5.688;2023-09-30T09:31:19;10.02;;;5.55;;
16416;SDS011;8317;52.186;5.688;2023-09-30T09:33:47;12.40;;;6.32;;
16416;SDS011;8317;52.186;5.688;2023-09-30T09:36:14;8.85;;;5.05;;
16416;SDS011;8317;52.186;5.688;2023-09-30T09:38:45;11.45;;;5.32;;
16416;SDS011;8317;52.186;5.688;2023-09-30T09:41:16;12.25;;;5.55;;
16416;SDS011;8317;52.186;5.688;2023-09-30T09:43:43;7.25;;;4.72;;
16416;SDS011;8317;52.186;5.688;2023-09-30T09:46:10;7.88;;;4.40;;
16416;SDS011;8317;52.186;5.688;2023-09-30T09:48:37;9.70;;;5.90;;
16416;SDS011;8317;52.186;5.688;2023-09-30T09:51:04;12.10;;;5.75;;
16416;SDS011;8317;52.186;5.688;2023-09-30T09:53:34;10.52;;;5.60;;
16416;SDS011;8317;52.186;5.688;2023-09-30T09:56:02;9.57;;;4.85;;
16416;SDS011;8317;52.186;5.688;2023-09-30T09:58:32;8.57;;;5.22;;
16416;SDS011;8317;52.186;5.688;2023-09-30T10:01:01;10.38;;;4.70;;
16416;SDS011;8317;52.186;5.688;2023-09-30T10:03:28;12.63;;;4.75;;
16416;SDS011;8317;52.186;5.688;2023-09-30T10:05:55;9.90;;;5.65;;
16416;SDS011;8317;52.186;5.688;2023-09-30T10:08:27;10.68;;;5.28;;
16416;SDS011;8317;52.186;5.688;2023-09-30T10:10:57;12.38;;;5.57;;
16416;SDS011;8317;52.186;5.688;2023-09-30T10:19:18;8.02;;;5.07;;
16416;SDS011;8317;52.186;5.688;2023-09-30T10:24:49;7.93;;;5.03;;
16416;SDS011;8317;52.186;5.688;2023-09-30T10:27:33;10.05;;;4.45;;
16416;SDS011;8317;52.186;5.688;2023-09-30T10:30:13;10.35;;;4.03;;
16416;SDS011;8317;52.186;5.688;2023-09-30T10:35:43;12.43;;;4.90;;
16416;SDS011;8317;52.186;5.688;2023-09-30T10:41:08;9.32;;;3.63;;
16416;SDS011;8317;52.186;5.688;2023-09-30T10:43:37;10.75;;;3.33;;
16416;SDS011;8317;52.186;5.688;2023-09-30T10:46:29;10.00;;;3.15;;
16416;SDS011;8317;52.186;5.688;2023-09-30T10:49:10;6.50;;;2.75;;
16416;SDS011;8317;52.186;5.688;2023-09-30T10:51:42;6.00;;;2.90;;
16416;SDS011;8317;52.186;5.688;2023-09-30T10:54:10;9.73;;;3.22;;
16416;SDS011;8317;52.186;5.688;2023-09-30T10:56:39;6.70;;;2.97;;
16416;SDS011;8317;52.186;5.688;2023-09-30T10:59:06;6.30;;;3.13;;
16416;SDS011;8317;52.186;5.688;2023-09-30T11:01:35;5.63;;;2.53;;
16416;SDS011;8317;52.186;5.688;2023-09-30T11:04:03;5.13;;;1.98;;
16416;SDS011;8317;52.186;5.688;2023-09-30T11:06:32;7.40;;;2.53;;
16416;SDS011;8317;52.186;5.688;2023-09-30T11:08:59;8.93;;;3.10;;
16416;SDS011;8317;52.186;5.688;2023-09-30T11:11:34;6.78;;;3.42;;
16416;SDS011;8317;52.186;5.688;2023-09-30T11:14:18;7.65;;;2.67;;
16416;SDS011;8317;52.186;5.688;2023-09-30T11:16:47;12.75;;;3.65;;
16416;SDS011;8317;52.186;5.688;2023-09-30T11:19:16;8.27;;;3.33;;
16416;SDS011;8317;52.186;5.688;2023-09-30T11:21:45;5.85;;;3.25;;
16416;SDS011;8317;52.186;5.688;2023-09-30T11:24:13;8.07;;;3.67;;
16416;SDS011;8317;52.186;5.688;2023-09-30T11:26:41;6.00;;;2.63;;
16416;SDS011;8317;52.186;5.688;2023-09-30T11:29:09;7.90;;;2.70;;
16416;SDS011;8317;52.186;5.688;2023-09-30T11:31:37;5.90;;;2.20;;
16416;SDS011;8317;52.186;5.688;2023-09-30T11:34:06;6.40;;;1.83;;
16416;SDS011;8317;52.186;5.688;2023-09-30T11:36:34;4.57;;;1.98;;
16416;SDS011;8317;52.186;5.688;2023-09-30T11:39:01;4.88;;;1.63;;
16416;SDS011;8317;52.186;5.688;2023-09-30T11:41:32;5.72;;;1.35;;
16416;SDS011;8317;52.186;5.688;2023-09-30T11:44:01;7.05;;;2.53;;
16416;SDS011;8317;52.186;5.688;2023-09-30T11:46:32;4.90;;;1.73;;
16416;SDS011;8317;52.186;5.688;2023-09-30T11:49:23;7.70;;;1.58;;
16416;SDS011;8317;52.186;5.688;2023-09-30T11:51:52;5.75;;;1.83;;
16416;SDS011;8317;52.186;5.688;2023-09-30T11:54:19;3.40;;;1.80;;
16416;SDS011;8317;52.186;5.688;2023-09-30T11:56:47;8.23;;;2.17;;
16416;SDS011;8317;52.186;5.688;2023-09-30T11:59:15;6.55;;;1.73;;
16416;SDS011;8317;52.186;5.688;2023-09-30T12:01:44;7.68;;;1.88;;
16416;SDS011;8317;52.186;5.688;2023-09-30T12:04:15;7.50;;;2.20;;
16416;SDS011;8317;52.186;5.688;2023-09-30T12:06:44;5.40;;;1.83;;
16416;SDS011;8317;52.186;5.688;2023-09-30T12:09:11;5.82;;;1.80;;
16416;SDS011;8317;52.186;5.688;2023-09-30T12:11:39;9.43;;;2.35;;
16416;SDS011;8317;52.186;5.688;2023-09-30T12:14:09;5.32;;;2.20;;
16416;SDS011;8317;52.186;5.688;2023-09-30T12:16:37;5.78;;;2.80;;
16416;SDS011;8317;52.186;5.688;2023-09-30T12:19:04;6.18;;;2.00;;
16416;SDS011;8317;52.186;5.688;2023-09-30T12:21:33;7.57;;;1.75;;
16416;SDS011;8317;52.186;5.688;2023-09-30T12:24:01;3.33;;;1.60;;
16416;SDS011;8317;52.186;5.688;2023-09-30T12:26:29;3.13;;;1.67;;
16416;SDS011;8317;52.186;5.688;2023-09-30T12:28:56;8.13;;;2.17;;
16416;SDS011;8317;52.186;5.688;2023-09-30T12:31:23;9.25;;;2.63;;
16416;SDS011;8317;52.186;5.688;2023-09-30T12:33:50;3.10;;;1.58;;
16416;SDS011;8317;52.186;5.688;2023-09-30T12:36:19;6.65;;;2.40;;
16416;SDS011;8317;52.186;5.688;2023-09-30T12:38:48;5.95;;;2.35;;
16416;SDS011;8317;52.186;5.688;2023-09-30T12:41:14;6.97;;;2.20;;
16416;SDS011;8317;52.186;5.688;2023-09-30T12:43:44;8.30;;;2.58;;
16416;SDS011;8317;52.186;5.688;2023-09-30T12:46:11;6.90;;;2.55;;
16416;SDS011;8317;52.186;5.688;2023-09-30T12:48:38;7.38;;;2.15;;
16416;SDS011;8317;52.186;5.688;2023-09-30T12:51:05;6.68;;;1.55;;
16416;SDS011;8317;52.186;5.688;2023-09-30T12:53:35;5.00;;;1.60;;
16416;SDS011;8317;52.186;5.688;2023-09-30T12:56:03;5.45;;;1.50;;
16416;SDS011;8317;52.186;5.688;2023-09-30T12:58:30;5.53;;;1.60;;
16416;SDS011;8317;52.186;5.688;2023-09-30T13:00:58;4.32;;;1.40;;
16416;SDS011;8317;52.186;5.688;2023-09-30T13:03:25;4.93;;;1.95;;
16416;SDS011;8317;52.186;5.688;2023-09-30T13:05:52;4.50;;;1.65;;
16416;SDS011;8317;52.186;5.688;2023-09-30T13:08:19;3.15;;;1.55;;
16416;SDS011;8317;52.186;5.688;2023-09-30T13:10:46;5.38;;;1.90;;
16416;SDS011;8317;52.186;5.688;2023-09-30T13:13:16;5.22;;;1.80;;
16416;SDS011;8317;52.186;5.688;2023-09-30T13:15:43;4.70;;;1.90;;
16416;SDS011;8317;52.186;5.688;2023-09-30T13:18:10;8.60;;;2.22;;
16416;SDS011;8317;52.186;5.688;2023-09-30T13:20:37;6.10;;;1.80;;
16416;SDS011;8317;52.186;5.688;2023-09-30T13:23:04;15.80;;;2.85;;
16416;SDS011;8317;52.186;5.688;2023-09-30T13:25:31;7.85;;;2.60;;
16416;SDS011;8317;52.186;5.688;2023-09-30T13:27:58;5.88;;;2.33;;
16416;SDS011;8317;52.186;5.688;2023-09-30T13:30:26;7.25;;;2.08;;
16416;SDS011;8317;52.186;5.688;2023-09-30T13:32:53;7.78;;;2.20;;
16416;SDS011;8317;52.186;5.688;2023-09-30T13:35:21;9.05;;;2.13;;
16416;SDS011;8317;52.186;5.688;2023-09-30T13:37:48;10.25;;;2.72;;
16416;SDS011;8317;52.186;5.688;2023-09-30T13:40:14;8.43;;;2.70;;
16416;SDS011;8317;52.186;5.688;2023-09-30T13:42:42;11.25;;;2.40;;
16416;SDS011;8317;52.186;5.688;2023-09-30T13:45:10;5.60;;;2.88;;
16416;SDS011;8317;52.186;5.688;2023-09-30T13:47:39;9.23;;;3.35;;
16416;SDS011;8317;52.186;5.688;2023-09-30T13:50:06;6.80;;;3.05;;
16416;SDS011;8317;52.186;5.688;2023-09-30T13:52:34;7.63;;;3.25;;
16416;SDS011;8317;52.186;5.688;2023-09-30T13:55:02;8.48;;;2.53;;
16416;SDS011;8317;52.186;5.688;2023-09-30T13:57:29;6.50;;;2.70;;
16416;SDS011;8317;52.186;5.688;2023-09-30T13:59:56;10.38;;;3.55;;
16416;SDS011;8317;52.186;5.688;2023-09-30T14:02:23;9.93;;;3.03;;
16416;SDS011;8317;52.186;5.688;2023-09-30T14:04:52;8.57;;;3.08;;
16416;SDS011;8317;52.186;5.688;2023-09-30T14:07:19;9.02;;;3.15;;
16416;SDS011;8317;52.186;5.688;2023-09-30T14:09:46;6.57;;;3.60;;
16416;SDS011;8317;52.186;5.688;2023-09-30T14:12:13;8.50;;;2.72;;
16416;SDS011;8317;52.186;5.688;2023-09-30T14:14:40;6.25;;;2.85;;
16416;SDS011;8317;52.186;5.688;2023-09-30T14:17:07;7.90;;;2.80;;
16416;SDS011;8317;52.186;5.688;2023-09-30T14:19:36;8.07;;;3.00;;
16416;SDS011;8317;52.186;5.688;2023-09-30T14:22:05;5.65;;;2.33;;
16416;SDS011;8317;52.186;5.688;2023-09-30T14:24:33;7.25;;;2.67;;
16416;SDS011;8317;52.186;5.688;2023-09-30T14:27:01;3.58;;;1.70;;
16416;SDS011;8317;52.186;5.688;2023-09-30T14:29:28;8.80;;;2.88;;
16416;SDS011;8317;52.186;5.688;2023-09-30T14:31:56;9.18;;;2.17;;
16416;SDS011;8317;52.186;5.688;2023-09-30T14:34:24;4.20;;;2.38;;
16416;SDS011;8317;52.186;5.688;2023-09-30T14:36:51;11.30;;;2.47;;
16416;SDS011;8317;52.186;5.688;2023-09-30T14:39:20;8.30;;;3.22;;
16416;SDS011;8317;52.186;5.688;2023-09-30T14:41:46;4.78;;;2.42;;
16416;SDS011;8317;52.186;5.688;2023-09-30T14:44:13;9.55;;;3.70;;
16416;SDS011;8317;52.186;5.688;2023-09-30T14:46:40;8.23;;;2.65;;
16416;SDS011;8317;52.186;5.688;2023-09-30T14:49:08;9.27;;;3.38;;
16416;SDS011;8317;52.186;5.688;2023-09-30T14:51:35;5.35;;;3.42;;
16416;SDS011;8317;52.186;5.688;2023-09-30T14:54:03;7.88;;;2.38;;
16416;SDS011;8317;52.186;5.688;2023-09-30T14:56:32;14.02;;;3.05;;
16416;SDS011;8317;52.186;5.688;2023-09-30T14:58:58;5.15;;;2.60;;
16416;SDS011;8317;52.186;5.688;2023-09-30T15:01:25;7.55;;;2.95;;
16416;SDS011;8317;52.186;5.688;2023-09-30T15:03:52;9.30;;;3.40;;
16416;SDS011;8317;52.186;5.688;2023-09-30T15:06:19;8.10;;;2.80;;
16416;SDS011;8317;52.186;5.688;2023-09-30T15:08:49;8.80;;;3.10;;
16416;SDS011;8317;52.186;5.688;2023-09-30T15:11:16;12.07;;;3.38;;
16416;SDS011;8317;52.186;5.688;2023-09-30T15:13:45;9.65;;;3.05;;
16416;SDS011;8317;52.186;5.688;2023-09-30T15:16:16;6.70;;;2.80;;
16416;SDS011;8317;52.186;5.688;2023-09-30T15:18:44;10.52;;;3.67;;